Time;durP1;ratioP1;P1;durP2;ratioP2;P2;SDS_P1;SDS_P2;PMS_P1;PMS_P2;Temp;Humidity;BMP_temperature;BMP_pressure;BME280_temperature;BME280_humidity;BME280_pressure;Samples;Min_cycle;Max_cycle;Signal;HPM_P1;HPM_P2
2023/03/06 00:01:17;;;;;;;12.88;6.38;;;5.40;52.30;;;0.31;81.05;94738.03;4971007;28;20037;-55
2023/03/06 00:03:46;;;;;;;10.82;6.20;;;5.40;52.40;;;0.33;81.44;94736.00;4934621;28;20042;-55
2023/03/06 00:06:12;;;;;;;15.77;6.95;;;5.40;52.40;;;0.30;81.90;94736.44;4947886;28;20557;-54
2023/03/06 00:08:40;;;;;;;14.05;7.50;;;5.50;52.40;;;0.30;81.98;94733.00;4954925;28;20064;-51
2023/03/06 00:11:06;;;;;;;15.02;7.07;;;5.40;52.40;;;0.31;81.76;94735.41;4946975;28;20481;-53
2023/03/06 00:13:44;;;;;;;17.27;6.40;;;5.40;52.40;;;0.31;82.61;94730.16;4959029;28;20070;-56
2023/03/06 00:16:10;;;;;;;13.15;6.72;;;5.50;52.60;;;0.33;82.64;94729.97;4957496;28;20022;-54
2023/03/06 00:18:39;;;;;;;11.95;6.72;;;5.50;52.60;;;0.34;82.76;94726.31;4957733;28;20023;-56
2023/03/06 00:21:10;;;;;;;14.27;6.57;;;5.50;52.70;;;0.36;82.19;94727.69;4960874;28;20029;-52
2023/03/06 00:23:40;;;;;;;16.75;6.50;;;5.50;52.70;;;0.35;82.12;94717.44;4957662;28;20489;-53
2023/03/06 00:26:08;;;;;;;14.25;6.85;;;5.50;52.70;;;0.34;82.63;94718.44;4938963;28;20044;-52
2023/03/06 00:28:37;;;;;;;13.80;6.90;;;5.50;52.70;;;0.32;83.21;94713.44;4961311;28;20034;-55
2023/03/06 00:31:03;;;;;;;12.38;6.82;;;5.50;52.70;;;0.32;83.62;94717.88;4971152;28;20382;-50
2023/03/06 00:33:32;;;;;;;13.48;7.35;;;5.50;52.80;;;0.30;83.18;94712.06;4957106;28;20049;-52
2023/03/06 00:35:58;;;;;;;15.38;6.57;;;5.50;52.90;;;0.28;83.26;94708.84;4953289;28;20014;-55
2023/03/06 00:38:34;;;;;;;14.73;7.25;;;5.50;52.90;;;0.21;82.80;94706.31;4956264;28;20026;-56
2023/03/06 00:41:11;;;;;;;11.70;6.13;;;5.50;52.90;;;0.19;83.22;94698.69;4954624;28;20030;-52
2023/03/06 00:43:41;;;;;;;12.73;6.47;;;5.40;52.90;;;0.21;83.51;94701.09;4958918;28;20458;-54
2023/03/06 00:46:07;;;;;;;14.68;7.43;;;5.40;52.90;;;0.21;83.16;94698.47;4971134;28;20382;-53
2023/03/06 00:48:33;;;;;;;18.25;7.82;;;5.30;52.80;;;0.19;82.71;94697.91;4963199;28;20031;-52
2023/03/06 00:51:09;;;;;;;15.18;7.60;;;5.30;52.90;;;0.15;83.08;94692.28;4980093;28;20420;-56
2023/03/06 00:53:43;;;;;;;12.98;6.82;;;5.40;53.00;;;0.10;83.57;94692.16;4970613;28;20100;-53
2023/03/06 00:56:12;;;;;;;10.13;5.78;;;5.30;53.00;;;0.07;83.98;94691.81;4971528;28;20030;-54
2023/03/06 00:59:01;;;;;;;12.35;6.45;;;5.30;53.10;;;-0.02;85.01;94680.81;4970868;28;20053;-52
2023/03/06 01:01:32;;;;;;;13.52;7.15;;;5.30;53.20;;;0.01;85.06;94679.59;4964161;28;20105;-53
2023/03/06 01:04:01;;;;;;;10.63;6.03;;;5.20;53.20;;;0.01;85.09;94671.75;4953595;28;20033;-53
2023/03/06 01:06:33;;;;;;;16.10;8.02;;;5.20;53.20;;;0.02;85.22;94671.50;4957419;28;20022;-54
2023/03/06 01:09:08;;;;;;;17.73;7.35;;;5.20;53.40;;;-0.01;85.61;94664.09;4951603;28;20137;-52
2023/03/06 01:11:37;;;;;;;13.23;6.53;;;5.20;53.40;;;0.01;85.15;94663.88;4957231;28;20418;-54
2023/03/06 01:14:06;;;;;;;15.05;7.03;;;5.20;53.40;;;-0.03;85.57;94658.28;4968236;28;20466;-55
2023/03/06 01:16:31;;;;;;;12.55;6.47;;;5.20;53.50;;;-0.02;85.39;94658.06;4953361;28;20161;-51
2023/03/06 01:19:13;;;;;;;12.32;6.65;;;5.20;53.50;;;-0.01;85.44;94645.75;4958381;28;20112;-53
2023/03/06 01:21:45;;;;;;;13.18;6.40;;;5.20;53.60;;;-0.03;85.45;94639.97;4936871;28;20152;-56
2023/03/06 01:24:19;;;;;;;13.82;6.63;;;5.20;53.60;;;-0.04;86.13;94640.97;4954382;28;20173;-50
2023/03/06 01:26:48;;;;;;;15.52;7.03;;;5.20;53.70;;;-0.06;85.99;94629.94;4953335;28;20042;-54
2023/03/06 01:29:14;;;;;;;15.43;6.93;;;5.10;53.70;;;-0.07;86.02;94625.69;4957105;28;20081;-54
2023/03/06 01:31:40;;;;;;;11.35;6.10;;;5.20;53.70;;;-0.11;86.28;94616.69;4953632;28;20025;-55
2023/03/06 01:34:06;;;;;;;13.52;7.13;;;5.10;53.70;;;-0.17;86.62;94615.75;4969552;28;20381;-51
2023/03/06 01:36:38;;;;;;;14.55;6.75;;;5.10;53.70;;;-0.19;86.04;94617.00;4954119;28;20108;-55
2023/03/06 01:39:04;;;;;;;14.02;6.07;;;5.00;53.80;;;-0.27;86.77;94618.91;4971195;28;20026;-52
2023/03/06 01:41:31;;;;;;;12.35;6.90;;;5.00;53.80;;;-0.31;87.18;94617.75;4951977;28;20044;-51
2023/03/06 01:44:03;;;;;;;15.55;7.40;;;4.90;53.80;;;-0.38;88.78;94613.59;4970032;28;20014;-55
2023/03/06 01:47:01;;;;;;;13.23;7.03;;;4.80;53.90;;;-0.47;88.15;94600.84;4968297;28;20030;-52
2023/03/06 01:49:40;;;;;;;14.27;7.03;;;4.80;54.10;;;-0.54;87.88;94597.47;4960569;28;20285;-54
2023/03/06 01:52:17;;;;;;;16.15;7.25;;;4.70;54.10;;;-0.61;88.04;94590.72;4949187;28;20029;-56
2023/03/06 01:55:09;;;;;;;14.27;7.05;;;4.60;54.00;;;-0.71;87.82;94594.66;4946457;28;20026;-54
2023/03/06 01:57:45;;;;;;;21.33;7.65;;;4.50;54.10;;;-0.84;89.08;94589.56;4951973;28;20118;-50
2023/03/06 02:00:19;;;;;;;14.65;7.15;;;4.40;54.10;;;-0.88;89.51;94587.59;4969092;28;20022;-54
2023/03/06 02:03:00;;;;;;;15.23;6.78;;;4.30;54.20;;;-0.97;90.00;94581.88;4969211;28;20030;-52
2023/03/06 02:05:26;;;;;;;15.43;7.88;;;4.30;54.30;;;-0.99;89.74;94578.66;4966144;28;20026;-53
2023/03/06 02:08:04;;;;;;;13.32;6.68;;;4.20;54.30;;;-1.04;89.21;94583.75;4950024;28;20081;-55
2023/03/06 02:10:36;;;;;;;17.42;8.07;;;4.10;54.50;;;-1.10;88.58;94584.59;4963631;28;20021;-56
2023/03/06 02:13:02;;;;;;;16.02;7.50;;;4.10;54.50;;;-1.29;90.47;94578.53;4937007;28;20049;-56
2023/03/06 02:15:30;;;;;;;15.68;7.50;;;4.00;54.50;;;-1.30;90.29;94582.97;4937323;28;20157;-55
2023/03/06 02:18:05;;;;;;;12.13;6.95;;;3.90;54.60;;;-1.36;89.91;94580.44;4952823;28;20038;-55
2023/03/06 02:20:50;;;;;;;15.55;7.47;;;3.80;54.70;;;-1.52;91.66;94579.16;4953720;28;20308;-52
2023/03/06 02:24:25;;;;;;;15.77;7.90;;;3.80;54.80;;;-1.55;91.43;94569.94;4954889;28;20031;-55
2023/03/06 02:26:53;;;;;;;15.52;6.35;;;3.70;54.90;;;-1.63;91.48;94568.41;4973523;28;20038;-50
2023/03/06 02:29:27;;;;;;;16.40;6.97;;;3.60;54.80;;;-1.75;92.36;94567.47;4956570;28;20477;-53
2023/03/06 02:31:59;;;;;;;20.80;7.22;;;3.50;54.90;;;-1.75;92.27;94561.47;4964236;28;20477;-52
2023/03/06 02:34:28;;;;;;;16.65;7.78;;;3.40;55.00;;;-1.77;91.80;94558.25;4956683;28;20061;-53
2023/03/06 02:37:07;;;;;;;17.67;7.10;;;3.40;55.00;;;-1.79;91.85;94545.41;4962803;28;20042;-55
2023/03/06 02:39:52;;;;;;;19.48;7.93;;;3.30;55.20;;;-1.86;92.11;94544.66;4965100;28;20109;-51
2023/03/06 02:42:30;;;;;;;15.73;7.35;;;3.30;55.30;;;-1.95;92.77;94538.09;4959714;28;20046;-54
2023/03/06 02:45:19;;;;;;;16.17;7.68;;;3.20;55.30;;;-1.97;93.04;94538.31;4968426;28;20022;-50
2023/03/06 02:47:48;;;;;;;16.13;6.65;;;3.20;55.50;;;-2.02;93.44;94538.16;4954280;28;20307;-54
2023/03/06 02:50:19;;;;;;;13.32;7.18;;;3.10;55.40;;;-2.01;93.70;94531.91;4960362;28;20069;-51
2023/03/06 02:52:45;;;;;;;17.95;8.10;;;3.10;55.60;;;-2.05;94.01;94525.53;4953633;28;20097;-51
2023/03/06 02:55:11;;;;;;;21.60;9.07;;;3.10;55.60;;;-2.05;93.89;94533.34;4949384;29;20430;-53
2023/03/06 02:57:37;;;;;;;19.15;7.88;;;3.00;55.70;;;-2.10;94.23;94522.75;4951732;28;20026;-53
2023/03/06 03:00:05;;;;;;;18.23;8.68;;;3.00;55.80;;;-2.09;94.04;94519.13;4964307;28;20019;-53
2023/03/06 03:02:31;;;;;;;23.02;8.63;;;3.00;55.90;;;-2.08;94.27;94531.16;4954245;28;20027;-50
2023/03/06 03:05:03;;;;;;;14.57;7.57;;;3.00;55.90;;;-2.14;94.58;94527.59;4954128;28;20081;-50
2023/03/06 03:07:32;;;;;;;15.77;7.30;;;3.00;55.90;;;-2.12;95.05;94530.78;4971428;28;20449;-51
2023/03/06 03:10:07;;;;;;;14.50;7.38;;;3.00;56.00;;;-2.10;94.99;94527.97;4932304;28;20014;-49
2023/03/06 03:12:37;;;;;;;21.50;8.65;;;2.90;56.10;;;-2.09;94.73;94526.97;4956753;28;20085;-49
2023/03/06 03:15:05;;;;;;;15.32;7.78;;;3.00;56.30;;;-2.11;94.69;94524.56;4955991;28;20022;-50
2023/03/06 03:17:34;;;;;;;17.98;8.55;;;3.00;56.20;;;-2.10;94.89;94523.56;4923665;28;20034;-50
2023/03/06 03:20:03;;;;;;;20.00;8.38;;;3.00;56.30;;;-2.09;95.18;94513.91;4953683;28;20085;-51
2023/03/06 03:22:32;;;;;;;17.90;8.68;;;3.00;56.30;;;-2.07;95.24;94531.97;4955220;28;20482;-51
2023/03/06 03:25:01;;;;;;;19.42;9.02;;;3.00;56.40;;;-2.06;95.03;94526.53;4961263;28;20030;-48
2023/03/06 03:27:27;;;;;;;25.00;9.10;;;3.00;56.50;;;-2.04;95.04;94527.13;4964331;28;20136;-48
2023/03/06 03:30:00;;;;;;;17.92;8.52;;;3.00;56.40;;;-2.02;94.70;94530.31;4958870;28;20442;-48
2023/03/06 03:32:26;;;;;;;;;;;3.10;56.60;;;-2.00;94.56;94524.91;4964662;28;20035;-48
2023/03/06 03:34:55;;;;;;;16.58;7.38;;;3.10;56.30;;;-2.00;94.43;94524.91;4943771;28;19906;-48
2023/03/06 03:37:27;;;;;;;16.85;7.63;;;3.10;56.40;;;-2.01;94.29;94523.28;4971465;28;20026;-48
2023/03/06 03:39:56;;;;;;;19.45;8.38;;;3.10;56.40;;;-2.04;94.08;94519.28;4954566;28;20105;-48
2023/03/06 03:42:25;;;;;;;16.02;7.95;;;3.10;56.40;;;-2.07;93.94;94514.50;4972933;28;20045;-50
2023/03/06 03:44:51;;;;;;;12.57;6.78;;;3.10;56.40;;;-2.11;94.28;94515.94;4955477;28;20046;-48
2023/03/06 03:47:32;;;;;;;16.13;7.88;;;3.00;56.40;;;-2.12;94.16;94525.56;4955129;28;20111;-48
2023/03/06 03:50:00;;;;;;;18.23;8.43;;;3.10;56.50;;;-2.12;94.22;94520.34;4939465;28;20069;-48
2023/03/06 03:52:29;;;;;;;15.82;7.82;;;3.00;56.40;;;-2.12;94.08;94517.75;4971927;28;20026;-48
2023/03/06 03:55:02;;;;;;;20.85;8.23;;;3.00;56.50;;;-2.15;94.22;94515.56;4955532;28;20022;-50
2023/03/06 03:57:31;;;;;;;17.50;8.10;;;3.00;56.60;;;-2.15;94.43;94510.34;4955706;28;20053;-47
2023/03/06 04:00:03;;;;;;;22.42;8.27;;;3.00;56.60;;;-2.16;94.51;94510.56;4963994;28;20040;-47
2023/03/06 04:02:32;;;;;;;21.25;8.98;;;3.00;56.60;;;-2.16;94.36;94505.34;4961543;28;20040;-50
2023/03/06 04:05:01;;;;;;;17.65;7.60;;;3.00;56.70;;;-2.19;94.54;94506.56;4951925;28;20036;-48
2023/03/06 04:07:33;;;;;;;17.27;8.52;;;3.00;56.70;;;-2.19;94.42;94511.00;4950923;28;20018;-47
2023/03/06 04:10:08;;;;;;;17.67;8.38;;;3.00;56.70;;;-2.20;94.31;94512.78;4965301;28;20517;-47
2023/03/06 04:12:38;;;;;;;18.50;8.60;;;2.90;56.80;;;-2.20;94.54;94506.75;4954131;28;20034;-50
2023/03/06 04:15:06;;;;;;;16.65;8.00;;;2.90;56.80;;;-2.23;95.10;94509.78;4953405;28;20488;-50
2023/03/06 04:17:35;;;;;;;20.45;8.82;;;2.90;56.80;;;-2.25;95.46;94506.63;4968417;28;20041;-48
2023/03/06 04:20:05;;;;;;;18.40;8.77;;;2.90;56.90;;;-2.24;95.53;94509.00;4966231;28;20034;-47
2023/03/06 04:22:31;;;;;;;19.45;7.88;;;2.90;56.90;;;-2.24;95.48;94506.38;4971307;28;20596;-49
2023/03/06 04:24:57;;;;;;;19.23;8.57;;;2.90;56.90;;;-2.26;95.55;94505.78;4956628;28;20022;-48
2023/03/06 04:27:23;;;;;;;20.50;7.40;;;2.90;57.00;;;-2.26;95.53;94505.78;4964985;28;20058;-48
2023/03/06 04:30:01;;;;;;;17.13;7.75;;;2.90;56.90;;;-2.26;95.10;94508.41;4956796;28;20022;-48
2023/03/06 04:32:33;;;;;;;17.65;7.97;;;2.90;57.10;;;-2.29;95.30;94514.03;4943738;28;20464;-47
2023/03/06 04:35:01;;;;;;;19.08;8.88;;;2.90;57.10;;;-2.31;95.27;94500.44;4966787;28;20034;-47
2023/03/06 04:37:27;;;;;;;20.27;8.13;;;2.90;57.00;;;-2.34;95.41;94501.63;4971301;28;20109;-46
2023/03/06 04:40:00;;;;;;;16.33;7.10;;;2.90;57.10;;;-2.38;96.14;94495.25;4969239;28;20271;-48
2023/03/06 04:42:25;;;;;;;19.52;8.80;;;2.90;57.10;;;-2.34;96.28;94493.81;4960714;28;20046;-47
2023/03/06 04:44:57;;;;;;;15.48;7.80;;;2.80;57.10;;;-2.31;96.11;94492.59;4954103;28;20512;-48
2023/03/06 04:47:23;;;;;;;17.30;7.78;;;2.80;57.20;;;-2.31;96.08;94482.16;4965717;28;20532;-48
2023/03/06 04:49:52;;;;;;;16.27;7.47;;;2.80;57.20;;;-2.33;96.15;94484.97;4953646;28;20026;-47
2023/03/06 04:52:24;;;;;;;20.05;8.93;;;2.80;57.30;;;-2.33;96.20;94478.97;4965568;28;20026;-47
2023/03/06 04:55:07;;;;;;;19.77;9.43;;;2.80;57.30;;;-2.33;96.58;94492.00;4951509;28;20114;-47
2023/03/06 04:57:40;;;;;;;20.08;9.15;;;2.90;57.30;;;-2.34;96.23;94490.41;4966446;28;20056;-48
2023/03/06 05:00:22;;;;;;;17.55;8.80;;;2.80;57.30;;;-2.30;95.87;94483.75;4969773;28;20029;-47
2023/03/06 05:02:50;;;;;;;16.88;7.50;;;2.80;57.40;;;-2.29;95.92;94484.53;4956361;28;20056;-47
2023/03/06 05:05:19;;;;;;;17.95;8.43;;;2.80;57.30;;;-2.28;96.39;94488.78;4959965;28;20029;-47
2023/03/06 05:07:45;;;;;;;16.25;9.05;;;2.90;57.40;;;-2.25;96.63;94496.19;4952982;28;20038;-47
2023/03/06 05:10:16;;;;;;;18.77;8.68;;;2.90;57.40;;;-2.25;96.82;94488.34;4956633;28;20037;-50
2023/03/06 05:12:43;;;;;;;16.55;8.57;;;2.90;57.60;;;-2.24;96.81;94482.91;4968981;28;20072;-50
2023/03/06 05:15:15;;;;;;;17.77;7.97;;;2.90;57.50;;;-2.22;96.66;94493.16;4968366;28;20044;-47
2023/03/06 05:17:41;;;;;;;20.65;9.75;;;2.90;57.50;;;-2.20;96.54;94491.91;4950008;28;20034;-47
2023/03/06 05:20:11;;;;;;;16.58;8.40;;;3.00;57.50;;;-2.19;96.06;94493.53;4937614;28;20025;-48
2023/03/06 05:22:41;;;;;;;15.65;8.15;;;2.90;57.50;;;-2.19;96.45;94492.72;4966499;28;20030;-46
2023/03/06 05:25:09;;;;;;;19.95;8.85;;;3.00;57.60;;;-2.15;96.55;94493.88;4969642;28;20440;-47
2023/03/06 05:27:36;;;;;;;18.52;9.07;;;3.00;57.60;;;-2.14;96.66;94491.06;4956028;28;20042;-48
2023/03/06 05:30:08;;;;;;;17.80;8.50;;;3.00;57.60;;;-2.12;96.69;94483.81;4965046;28;20066;-48
2023/03/06 05:32:35;;;;;;;21.47;9.83;;;3.10;57.70;;;-2.11;96.65;94488.03;4950152;28;20176;-50
2023/03/06 05:35:05;;;;;;;20.10;9.30;;;3.10;57.60;;;-2.10;96.56;94487.03;4942410;28;20375;-49
2023/03/06 05:37:32;;;;;;;17.48;8.27;;;3.10;57.70;;;-2.06;96.70;94484.00;4952252;28;20038;-49
2023/03/06 05:39:59;;;;;;;22.45;9.25;;;3.10;57.70;;;-2.02;96.43;94491.19;4969340;28;20188;-46
2023/03/06 05:42:27;;;;;;;21.65;10.35;;;3.10;57.70;;;-2.04;96.20;94490.56;4951992;28;20392;-47
2023/03/06 05:44:52;;;;;;;19.85;9.00;;;3.20;57.70;;;-2.03;96.49;94499.22;4968744;28;20193;-50
2023/03/06 05:47:18;;;;;;;26.23;10.40;;;3.20;57.70;;;-2.01;96.31;94500.59;4957300;28;20038;-47
2023/03/06 05:49:44;;;;;;;30.48;11.40;;;3.20;57.70;;;-1.93;96.44;94512.59;4949746;28;20053;-46
2023/03/06 05:52:11;;;;;;;23.30;10.93;;;3.30;57.80;;;-1.87;96.37;94506.53;4951894;28;20029;-47
2023/03/06 05:54:37;;;;;;;29.20;12.35;;;3.30;57.80;;;-1.83;96.62;94506.91;4946736;28;20081;-52
2023/03/06 05:57:05;;;;;;;26.48;12.55;;;3.40;57.80;;;-1.76;96.40;94516.25;4949930;28;20038;-48
2023/03/06 05:59:32;;;;;;;27.20;12.15;;;3.50;57.90;;;-1.70;96.26;94509.38;4949336;28;20072;-48
2023/03/06 06:02:02;;;;;;;27.90;12.30;;;3.50;57.80;;;-1.64;96.35;94509.31;4949964;28;20030;-47
2023/03/06 06:04:28;;;;;;;28.00;12.15;;;3.60;57.80;;;-1.59;96.09;94515.75;4967273;28;20026;-48
2023/03/06 06:06:59;;;;;;;31.17;12.50;;;3.60;57.70;;;-1.55;96.41;94522.91;4949992;28;20042;-47
2023/03/06 06:09:27;;;;;;;27.17;12.40;;;3.70;57.80;;;-1.50;96.11;94517.06;4951964;28;20030;-47
2023/03/06 06:11:59;;;;;;;29.88;13.60;;;3.80;57.80;;;-1.47;96.20;94520.03;4938509;28;20026;-49
2023/03/06 06:14:25;;;;;;;23.83;10.57;;;3.80;57.70;;;-1.41;95.96;94520.97;4946514;28;20026;-47
2023/03/06 06:16:52;;;;;;;25.48;13.48;;;3.90;57.60;;;-1.34;95.95;94532.19;4950731;28;20497;-47
2023/03/06 06:19:19;;;;;;;30.58;13.25;;;3.90;57.60;;;-1.29;95.91;94531.50;4941612;28;20488;-48
2023/03/06 06:21:52;;;;;;;30.75;13.05;;;4.00;57.70;;;-1.23;95.46;94534.06;4954879;28;20555;-47
2023/03/06 06:24:25;;;;;;;30.20;13.13;;;4.00;57.80;;;-1.18;95.46;94528.19;4958165;28;20023;-48
2023/03/06 06:26:57;;;;;;;28.33;12.32;;;4.10;57.70;;;-1.12;95.24;94523.91;4964290;28;20036;-47
2023/03/06 06:29:25;;;;;;;30.75;13.23;;;4.10;57.70;;;-1.09;95.01;94534.75;4956382;28;20072;-47
2023/03/06 06:31:52;;;;;;;26.83;12.05;;;4.20;57.70;;;-1.02;94.88;94535.47;4943052;29;20025;-51
2023/03/06 06:34:20;;;;;;;28.65;12.50;;;4.30;57.70;;;-0.98;94.49;94536.59;4960463;28;20489;-47
2023/03/06 06:36:47;;;;;;;28.88;14.07;;;4.30;57.60;;;-0.93;94.28;94541.19;4946863;28;20437;-50
2023/03/06 06:39:18;;;;;;;26.75;12.57;;;4.40;57.60;;;-0.88;93.77;94545.75;4963989;28;20033;-51
2023/03/06 06:41:47;;;;;;;27.60;12.45;;;4.40;57.50;;;-0.82;93.58;94545.69;4964529;28;20416;-50
2023/03/06 06:44:15;;;;;;;27.70;13.20;;;4.50;57.50;;;-0.79;92.75;94550.47;4934147;28;20028;-49
2023/03/06 06:46:44;;;;;;;28.52;11.55;;;4.50;57.50;;;-0.74;92.22;94544.59;4947658;28;20029;-47
2023/03/06 06:49:13;;;;;;;25.40;11.88;;;4.60;57.50;;;-0.68;91.76;94553.41;4966654;28;20018;-47
2023/03/06 06:51:40;;;;;;;26.27;11.27;;;4.60;57.40;;;-0.63;90.70;94556.13;4967199;28;20022;-47
2023/03/06 06:54:07;;;;;;;25.75;11.65;;;4.70;57.40;;;-0.56;90.64;94557.66;4965519;28;20026;-48
2023/03/06 06:56:34;;;;;;;24.00;11.43;;;4.80;57.40;;;-0.48;90.02;94554.72;4950208;28;20062;-50
2023/03/06 06:59:00;;;;;;;23.50;11.10;;;4.80;57.30;;;-0.42;89.72;94558.28;4964735;28;20026;-47
2023/03/06 07:01:30;;;;;;;25.55;12.02;;;4.90;57.20;;;-0.33;89.46;94554.34;4949955;28;20030;-49
2023/03/06 07:03:56;;;;;;;21.95;10.38;;;5.00;57.20;;;-0.30;88.47;94559.16;4964842;28;20358;-47
2023/03/06 07:06:22;;;;;;;27.17;11.40;;;5.10;57.20;;;-0.21;88.35;94553.63;4964213;28;20032;-50
2023/03/06 07:08:50;;;;;;;23.52;11.40;;;5.10;57.00;;;-0.21;87.87;94556.22;4950313;28;20037;-48
2023/03/06 07:11:17;;;;;;;21.25;11.05;;;5.20;56.90;;;-0.15;87.46;94561.38;4950219;28;20690;-47
2023/03/06 07:13:46;;;;;;;24.90;11.50;;;5.40;56.80;;;-0.11;86.45;94564.34;4966048;28;20037;-47
2023/03/06 07:16:12;;;;;;;21.90;10.52;;;5.40;56.70;;;-0.09;86.27;94559.69;4971871;28;20102;-51
2023/03/06 07:18:39;;;;;;;25.83;11.18;;;5.40;56.60;;;-0.05;86.88;94563.44;4942557;28;20089;-47
2023/03/06 07:21:05;;;;;;;21.08;10.82;;;5.50;56.50;;;0.01;87.49;94559.16;4967774;28;20026;-50
2023/03/06 07:23:38;;;;;;;23.05;10.90;;;5.50;56.40;;;0.05;87.56;94560.28;4945607;28;20113;-47
2023/03/06 07:26:03;;;;;;;;;;;5.60;56.40;;;0.07;87.11;94563.50;4965791;28;20034;-52
2023/03/06 07:28:29;;;;;;;25.27;11.73;;;5.60;56.20;;;0.11;87.36;94560.19;4966908;28;19909;-48
2023/03/06 07:30:55;;;;;;;24.05;11.35;;;5.60;56.20;;;0.15;87.10;94560.53;4932953;28;20033;-49
2023/03/06 07:33:21;;;;;;;27.80;11.60;;;5.70;56.20;;;0.20;86.95;94558.84;4949494;28;20074;-49
2023/03/06 07:35:49;;;;;;;23.83;11.27;;;5.70;56.20;;;0.21;86.85;94551.78;4967601;28;20030;-49
2023/03/06 07:38:21;;;;;;;28.92;11.88;;;5.80;56.10;;;0.26;87.15;94557.16;4950827;28;20117;-50
2023/03/06 07:40:51;;;;;;;26.90;11.60;;;5.90;56.10;;;0.34;86.81;94556.81;4950866;28;20029;-48
2023/03/06 07:43:32;;;;;;;24.73;10.40;;;5.90;56.00;;;0.39;85.55;94556.16;4951486;28;20037;-49
2023/03/06 07:45:59;;;;;;;23.10;10.60;;;6.00;56.00;;;0.41;85.13;94556.72;4943389;28;20029;-49
2023/03/06 07:48:26;;;;;;;24.17;11.25;;;6.00;55.90;;;0.41;85.13;94562.75;4971049;28;20026;-49
2023/03/06 07:51:26;;;;;;;23.38;11.45;;;6.10;55.80;;;0.44;84.93;94569.38;4925221;28;20026;-47
2023/03/06 07:53:55;;;;;;;24.80;9.85;;;6.10;55.70;;;0.47;84.27;94563.69;4968081;28;20497;-48
2023/03/06 07:56:22;;;;;;;23.17;10.52;;;6.10;55.70;;;0.50;84.54;94573.69;4970993;28;20477;-47
2023/03/06 07:58:54;;;;;;;23.35;11.23;;;6.20;55.60;;;0.55;83.68;94565.16;4967302;28;20133;-48
2023/03/06 08:01:25;;;;;;;22.10;10.70;;;6.20;55.60;;;0.63;83.03;94575.31;4958460;28;20080;-47
2023/03/06 08:03:59;;;;;;;22.73;10.32;;;6.20;55.50;;;0.67;82.68;94579.09;4970446;28;20026;-51
2023/03/06 08:06:32;;;;;;;19.63;9.38;;;6.30;55.40;;;0.68;82.37;94572.81;4920271;28;20069;-48
2023/03/06 08:08:58;;;;;;;22.13;10.70;;;6.40;55.40;;;0.73;82.35;94570.31;4967045;28;20018;-48
2023/03/06 08:11:29;;;;;;;21.48;10.32;;;6.40;55.30;;;0.81;82.54;94569.16;4969394;28;20042;-48
2023/03/06 08:13:59;;;;;;;26.05;11.48;;;6.50;55.20;;;0.87;81.86;94571.66;4970389;28;20022;-49
2023/03/06 08:16:31;;;;;;;20.83;10.32;;;6.60;55.10;;;0.94;81.52;94576.81;4967957;28;20033;-51
2023/03/06 08:19:03;;;;;;;21.83;10.63;;;6.60;55.00;;;0.97;81.27;94581.56;4954445;28;20026;-49
2023/03/06 08:21:40;;;;;;;19.00;10.15;;;6.70;55.00;;;0.96;81.02;94574.75;4970009;28;20019;-48
2023/03/06 08:24:06;;;;;;;22.85;10.70;;;6.80;54.90;;;1.00;81.14;94575.09;4961523;28;20116;-49
2023/03/06 08:26:35;;;;;;;26.50;11.75;;;6.80;54.80;;;1.05;81.14;94580.44;4977754;28;20177;-49
2023/03/06 08:29:04;;;;;;;23.95;10.75;;;6.80;54.70;;;1.12;80.98;94583.75;4945519;28;20058;-49
2023/03/06 08:31:42;;;;;;;18.23;10.23;;;6.90;54.70;;;1.18;80.70;94580.19;4954183;28;20030;-50
2023/03/06 08:34:26;;;;;;;23.17;11.15;;;6.90;54.60;;;1.20;79.94;94591.28;4959078;28;20393;-49
2023/03/06 08:36:55;;;;;;;23.58;10.55;;;7.10;54.50;;;1.23;79.51;94597.91;4971281;28;20117;-49
2023/03/06 08:39:24;;;;;;;24.17;10.20;;;7.10;54.40;;;1.27;78.99;94594.56;4971777;28;20026;-48
2023/03/06 08:41:50;;;;;;;22.05;10.90;;;7.10;54.30;;;1.28;79.13;94600.59;4971495;28;20028;-55
2023/03/06 08:44:15;;;;;;;21.33;10.27;;;7.10;54.20;;;1.30;78.94;94598.56;4972757;28;20018;-47
2023/03/06 08:46:44;;;;;;;21.00;10.00;;;7.10;54.10;;;1.29;78.97;94603.00;4954471;28;20149;-51
2023/03/06 08:49:12;;;;;;;23.60;11.43;;;7.10;54.10;;;1.31;79.16;94605.38;4955195;28;20521;-48
2023/03/06 08:51:38;;;;;;;21.10;10.32;;;7.10;54.10;;;1.34;79.24;94597.06;4938621;28;20030;-57
2023/03/06 08:54:29;;;;;;;22.10;10.80;;;7.20;54.10;;;1.35;79.21;94603.94;4950826;28;20392;-48
2023/03/06 08:57:05;;;;;;;22.25;10.80;;;7.30;53.90;;;1.44;79.44;94599.88;4953706;28;20080;-48
2023/03/06 08:59:31;;;;;;;24.92;11.15;;;7.40;53.90;;;1.52;79.58;94596.91;4953170;28;20036;-58
2023/03/06 09:01:57;;;;;;;24.38;11.30;;;7.50;53.80;;;1.66;79.35;94610.59;4953999;28;20022;-54
2023/03/06 09:04:30;;;;;;;24.83;10.80;;;7.70;53.70;;;1.73;78.33;94602.59;4968233;28;20551;-48
2023/03/06 09:07:04;;;;;;;;;;;7.80;53.50;;;1.83;78.51;94592.28;4971820;28;20034;-48
2023/03/06 09:09:30;;;;;;;24.67;10.52;;;7.90;53.50;;;1.93;77.74;94604.78;4942310;28;19975;-48
2023/03/06 09:12:04;;;;;;;21.80;11.02;;;8.00;53.40;;;2.00;77.56;94600.97;4968287;28;20049;-54
2023/03/06 09:14:31;;;;;;;21.08;10.73;;;8.10;53.20;;;2.08;77.58;94602.47;4964873;28;20029;-49
2023/03/06 09:17:06;;;;;;;28.92;11.85;;;8.30;53.20;;;2.19;76.91;94611.31;4951908;28;20026;-49
2023/03/06 09:19:31;;;;;;;24.42;12.50;;;8.40;53.00;;;2.26;75.86;94612.78;4970709;28;20074;-56
2023/03/06 09:22:03;;;;;;;20.85;10.90;;;8.60;52.90;;;2.35;75.70;94610.56;4969532;28;20544;-48
2023/03/06 09:24:32;;;;;;;23.30;11.38;;;8.70;52.70;;;2.27;74.60;94611.72;4963399;28;20021;-51
2023/03/06 09:27:02;;;;;;;21.75;11.32;;;8.80;52.40;;;2.45;74.64;94609.94;4954482;28;20064;-55
2023/03/06 09:29:28;;;;;;;22.35;11.70;;;8.90;52.30;;;2.65;73.90;94607.63;4920766;28;20458;-49
2023/03/06 09:32:03;;;;;;;22.23;11.13;;;9.00;52.10;;;2.82;73.49;94612.91;4983034;28;20428;-49
2023/03/06 09:34:29;;;;;;;26.92;12.25;;;9.20;52.00;;;2.89;72.55;94607.50;4952028;28;20068;-53
2023/03/06 09:37:01;;;;;;;23.58;11.85;;;9.40;51.90;;;2.86;72.32;94610.59;4952561;28;20034;-48
2023/03/06 09:39:35;;;;;;;23.80;12.48;;;9.50;51.40;;;3.05;72.37;94609.31;4968998;28;20117;-48
2023/03/06 09:42:02;;;;;;;23.23;11.48;;;9.60;51.20;;;3.10;71.10;94614.63;4968248;28;20117;-48
2023/03/06 09:44:37;;;;;;;21.92;11.65;;;9.80;51.00;;;3.32;71.06;94616.50;4969156;28;20022;-50
2023/03/06 09:47:52;;;;;;;19.92;10.85;;;10.00;50.80;;;3.56;70.29;94615.25;4968021;28;20093;-56
2023/03/06 09:51:09;;;;;;;20.13;11.52;;;10.20;50.70;;;3.68;68.94;94609.88;4914790;28;20038;-49
2023/03/06 09:54:19;;;;;;;23.17;11.98;;;10.40;50.50;;;3.80;68.99;94612.41;4962518;28;20061;-48
2023/03/06 09:56:50;;;;;;;20.48;11.38;;;10.50;50.20;;;3.87;67.97;94611.16;4929269;29;20457;-48
2023/03/06 09:59:35;;;;;;;22.88;12.75;;;10.60;50.00;;;4.07;68.73;94615.06;4929185;28;20523;-48
2023/03/06 10:02:48;;;;;;;20.45;10.48;;;10.70;49.80;;;4.30;66.26;94604.25;4952450;28;20032;-52
2023/03/06 10:05:39;;;;;;;19.10;10.57;;;10.90;49.60;;;4.46;64.54;94602.56;4960602;28;20022;-50
2023/03/06 10:09:30;;;;;;;21.88;11.07;;;11.10;49.20;;;4.69;64.67;94598.00;4926474;28;20026;-49
2023/03/06 10:12:25;;;;;;;17.77;9.80;;;11.40;48.90;;;4.77;62.94;94592.28;4947539;28;20034;-48
2023/03/06 10:15:18;;;;;;;17.90;9.35;;;11.70;48.70;;;4.67;61.75;94586.91;4969127;28;20026;-48
2023/03/06 10:17:44;;;;;;;17.77;9.20;;;11.90;48.00;;;4.87;61.61;94590.50;4965424;28;20044;-50
2023/03/06 10:20:27;;;;;;;15.27;8.85;;;12.00;47.90;;;5.01;61.01;94595.34;4932462;28;20548;-50
2023/03/06 10:23:54;;;;;;;20.10;8.87;;;12.20;47.30;;;5.14;59.31;94597.56;4950962;28;20034;-48
2023/03/06 10:26:42;;;;;;;17.40;9.38;;;12.40;47.00;;;5.15;59.18;94598.38;4936608;28;20047;-47
2023/03/06 10:29:10;;;;;;;15.90;9.93;;;12.50;46.30;;;5.10;59.13;94594.63;4939803;28;20563;-48
2023/03/06 10:31:47;;;;;;;16.10;9.77;;;12.60;46.00;;;5.26;59.42;94586.81;4948791;28;20113;-48
2023/03/06 10:34:36;;;;;;;19.63;9.35;;;12.70;45.70;;;5.44;58.84;94589.03;4946961;29;20378;-51
2023/03/06 10:37:19;;;;;;;17.05;9.38;;;12.80;45.40;;;5.50;57.49;94588.00;4920472;29;20031;-48
2023/03/06 10:40:11;;;;;;;17.05;9.70;;;12.90;45.30;;;5.58;57.43;94592.03;4947766;29;20078;-53
2023/03/06 10:42:40;;;;;;;14.63;8.90;;;12.90;45.10;;;5.66;57.27;94582.78;4925692;29;20030;-48